portaloko.hr alexa rank chart, portaloko.hr alexa rank daily changes

portaloko.hr alexa rank chart, portaloko.hr alexa rank daily changes

portaloko.hr
Actual rank:
702 427

RANK HISTORY

Date Rank Diff
2018/05/22 702 427 +505 449
2018/05/21 196 978 -247 646
2018/05/20 444 624 -164 097
2018/05/19 608 721 -86 844
2018/05/14 695 565 +249 873
2018/05/13 445 692 -450 799
2018/05/12 896 491 +607 023
2018/05/11 289 468 -33 514
2018/05/10 322 982 +111 398
2018/05/09 211 584 -87 262
2018/05/08 298 846 -21 717
2018/05/07 320 563 -44 877
2018/05/06 365 440 -20 584
2018/05/04 386 024 +94 819
2018/05/03 291 205 +26 371
2018/05/02 264 834 -22 137
2018/05/01 286 971 +68 528
2018/04/30 218 443 -400 487
2018/04/29 618 930 +408 165
2018/04/28 210 765 -190 426
2018/04/26 401 191 +123 774
2018/04/25 277 417 -203 627
2018/04/24 481 044 -156 074
2018/04/22 637 118 +314 093
2018/04/21 323 025 -394
2018/04/20 323 419 +68 299
2018/04/19 255 120 -226 646
2018/04/18 481 766 +236 363
2018/04/17 245 403 -54 279
2018/04/16 299 682 -83 744
2018/04/15 383 426 +161 554
2018/04/14 221 872 -180 240
2018/04/13 402 112 -198 503
2018/04/12 600 615 +215 160
2018/04/11 385 455 -85 395
2018/04/10 470 850 +250 098
2018/04/09 220 752 -189 086
2018/04/08 409 838 -101 088
2018/04/07 510 926 +186 713
2018/04/06 324 213 -476 919
2018/04/05 801 132 +494 077
2018/04/04 307 055 -36 265
2018/04/03 343 320 -26 706
2018/04/02 370 026 +41 508
2018/04/01 328 518 -283 605
2018/03/31 612 123 +262 347
2018/03/30 349 776 +46 615
2018/03/29 303 161 +47 589
2018/03/28 255 572 -80 647
2018/03/27 336 219 -215 620
2018/03/26 551 839 +189 772
2018/03/25 362 067 -1 962
2018/03/24 364 029 -40 454
2018/03/23 404 483

WIDGET FOR YOUR SITE

DOMAINS WITH THE NEAREST RANK

Domain Rank
internationaltimber.com 702 422
lmnoeng.com 702 423
malaysianchinesekitchen.com 702 424
novelfeed.com 702 425
rebeccasaw.com 702 426
portaloko.hr 702 427
000space.com 702 428
archivosweb.com 702 429
mb-soft.com 702 430
teplogalaxy.ru 702 431
sport24-bg.com 702 432

DOMAINS WITH THE NEAREST RANK BY TLD .hr

Domain Rank
caf.hr 697 111
mcdonalds.hr 697 114
hvz.hr 701 888
primat-rd.hr 701 889
vrticiosijek.hr 701 892
portaloko.hr 702 427
globaltravel.hr 704 121
globus-exclusive.hr 704 122
hyundai-klub.hr 704 123
in4.hr 704 124
ns-kckz.hr 704 127